• Join FlightAware (Why Join?)
  • Login
  • US Flag 
04:47AM EDT


 

Airport Tracker/Info


-or-


 

Live Flight TrackerFlight Track Log ✈ N55VF ✈ 18-Jun-2013 ✈ KMTW - KPOV

Flight Track Log - Related Links

Times and Time Zones

All times are in EDT time to prevent confusion due to time zone crossing. See the N55VF flight status page for this flight to view local times or setup timezone preferences in your user account.

Time Position Orientation Groundspeed Altitude Reporting Facility
EDT Latitude Longitude Course Direction KTS MPH feet Rate Location/Type
04:16PM 44.1286 -87.5611 119° Southeast 149 171 3,800  Level Chicago Center
04:17PM 44.1078 -87.5108 120° Southeast 150 173 4,700 600 Climbing Chicago Center
04:18PM 44.0853 -87.4581 121° Southeast 153 176 5,100 480 Climbing Chicago Center
04:19PM 44.0625 -87.4022 120° Southeast 162 186 5,800 600 Climbing Chicago Center
04:20PM 44.0397 -87.3478 120° Southeast 161 185 6,400 480 Climbing Chicago Center
04:21PM 44.0161 -87.2906 120° Southeast 158 182 6,800 480 Climbing Chicago Center
04:22PM 43.9863 -87.3317 119° Southeast  Level Estimated
04:22PM 43.9931 -87.2347 120° Southeast 165 190 7,400  Level Chicago Center
04:23PM 43.9708 -87.1808 120° Southeast 163 188 8,000 480 Climbing Chicago Center
04:25PM 43.9475 -87.1286 122° Southeast 161 185 8,400 420 Climbing Chicago Center
04:26PM 43.9197 -87.0603 119° Southeast 167 192 8,900 480 Climbing Chicago Center
04:27PM 43.8956 -87.0056 121° Southeast 168 193 9,400 360 Climbing Chicago Center
04:28PM 43.8764 -86.9603 120° Southeast 168 193 9,700 420 Climbing Minneapolis Center
04:29PM 43.8453 -86.8869 120° Southeast 159 183 10,400 420 Climbing Minneapolis Center
04:30PM 43.8281 -86.8447 119° Southeast 159 183 10,600 300 Climbing Chicago Center
04:31PM 43.7989 -86.7783 121° Southeast 166 191 11,000 240 Climbing Chicago Center
04:32PM 43.7761 -86.7228 120° Southeast 166 191 11,100  Climbing Chicago Center
04:33PM 43.7492 -86.6631 122° Southeast 179 206 11,100 -60 Level Chicago Center
04:38PM 43.6080 -86.3330 122° Southeast 189 217 10,900 -60 Descending FlightAware
04:39PM 43.5950 -86.3020 120° Southeast 189 217 10,900  Level FlightAware
04:39PM 43.5780 -86.2610 120° Southeast 189 217 10,900  Level FlightAware
04:40PM 43.5690 -86.2400 121° Southeast 189 217 10,900  Level FlightAware
04:40PM 43.5440 -86.1850 122° Southeast 187 215 10,900  Level FlightAware
04:41PM 43.5260 -86.1440 121° Southeast 185 213 10,900  Level FlightAware
04:42PM 43.5080 -86.1010 120° Southeast 185 213 10,900  Level FlightAware
04:43PM 43.4860 -86.0530 122° Southeast 187 215 10,900  Level FlightAware
04:43PM 43.4660 -86.0070 121° Southeast 186 214 10,900  Level FlightAware
04:44PM 43.4540 -85.9780 120° Southeast 184 212 10,900  Level FlightAware
04:45PM 43.4300 -85.9230 121° Southeast 186 214 10,900  Level FlightAware
04:45PM 43.4130 -85.8840 121° Southeast 185 213 10,900  Level FlightAware
04:46PM 43.3960 -85.8470 122° Southeast 186 214 10,900  Level FlightAware
04:47PM 43.3750 -85.7990 121° Southeast 187 215 10,900  Level FlightAware
04:48PM 43.3440 -85.7270 121° Southeast 188 216 10,900  Level FlightAware
04:49PM 43.3300 -85.6940 120° Southeast 188 216 10,900  Level FlightAware
04:51PM 43.2600 -85.5380 122° Southeast 186 214 10,900  Level FlightAware
04:52PM 43.2390 -85.4930 123° Southeast 185 213 10,900  Level FlightAware
04:52PM 43.2210 -85.4520 121° Southeast 184 212 10,900  Level FlightAware
04:53PM 43.2030 -85.4120 122° Southeast 187 215 10,900  Level FlightAware
04:54PM 43.1830 -85.3670 121° Southeast 187 215 10,900  Level FlightAware
04:55PM 43.1640 -85.3230 121° Southeast 184 212 10,900  Level FlightAware
04:55PM 43.1400 -85.2710 122° Southeast 184 212 10,900  Level FlightAware
04:56PM 43.1220 -85.2300 121° Southeast 186 214 10,900  Level FlightAware
04:57PM 43.1030 -85.1880 122° Southeast 186 214 10,900  Level FlightAware
04:58PM 43.0840 -85.1460 122° Southeast 185 213 10,900  Level FlightAware
04:58PM 43.0640 -85.1020 122° Southeast 187 215 10,900  Level FlightAware
04:59PM 43.0460 -85.0620 122° Southeast 188 216 10,900  Level FlightAware
05:00PM 43.0290 -85.0250 122° Southeast 185 213 10,900  Level FlightAware
05:00PM 43.0070 -84.9750 121° Southeast 185 213 10,900  Level FlightAware
05:01PM 42.9900 -84.9370 121° Southeast 186 214 10,900  Level FlightAware
05:02PM 42.9690 -84.8910 122° Southeast 185 213 10,900  Level FlightAware
05:02PM 42.9510 -84.8520 122° Southeast 185 213 10,900  Level FlightAware
05:03PM 42.9300 -84.8070 123° Southeast 188 216 10,900  Level FlightAware
05:04PM 42.9120 -84.7650 120° Southeast 187 215 10,900  Level FlightAware
05:04PM 42.9010 -84.7230 110° East 186 214 10,900  Level FlightAware
05:05PM 42.8870 -84.6720 111° Southeast 187 215 10,900  Level FlightAware
05:06PM 42.8750 -84.6260 110° East 187 215 10,900  Level FlightAware
05:07PM 42.8580 -84.5630 110° East 190 219 10,900  Level FlightAware
05:08PM 42.8470 -84.5210 110° East 189 217 10,900  Level FlightAware
05:08PM 42.8330 -84.4680 110° East 190 219 10,900  Level FlightAware
05:09PM 42.8200 -84.4210 111° Southeast 191 220 10,900 -300 Level FlightAware
05:10PM 42.8030 -84.3550 109° East 204 235 10,500 -360 Descending FlightAware
05:11PM 42.7910 -84.3120 111° Southeast 203 234 10,400 -300 Descending FlightAware
05:11PM 42.7770 -84.2580 109° East 209 241 10,100 -600 Descending FlightAware
05:12PM 42.7670 -84.2200 110° East 218 251 9,700 -840 Descending FlightAware
05:12PM 42.7590 -84.1900 110° East 218 251 9,400 -540 Descending FlightAware
05:13PM 42.7470 -84.1480 111° Southeast 214 246 9,200 -420 Descending FlightAware
05:13PM 42.7370 -84.1110 110° East 210 242 9,000 -360 Descending FlightAware
05:14PM 42.7290 -84.0800 109° East 205 236 8,900 -120 Descending FlightAware
05:14PM 42.7170 -84.0380 111° Southeast 202 232 8,900  Level FlightAware
05:15PM 42.7100 -84.0110 109° East 195 224 8,900  Level FlightAware
05:15PM 42.6880 -83.9630 122° Southeast 194 223 8,900  Level FlightAware
05:16PM 42.6750 -83.9400 128° Southeast 192 221 8,900  Level FlightAware
05:16PM 42.6640 -83.9180 124° Southeast 192 221 8,900  Level FlightAware
05:17PM 42.6490 -83.8860 123° Southeast 192 221 8,900  Level FlightAware
05:17PM 42.6390 -83.8660 124° Southeast 192 221 8,900  Level FlightAware
05:18PM 42.6290 -83.8450 123° Southeast 192 221 8,900  Level FlightAware
05:18PM 42.6030 -83.7950 125° Southeast 193 222 8,900  Level FlightAware
05:18PM 42.5960 -83.7830 128° Southeast 193 222 8,900  Level FlightAware
05:19PM 42.5810 -83.7530 124° Southeast 192 221 8,900  Level FlightAware
05:19PM 42.5670 -83.7250 124° Southeast 193 222 8,900  Level FlightAware
05:20PM 42.5530 -83.6970 124° Southeast 193 222 8,900  Level FlightAware
05:20PM 42.5380 -83.6670 124° Southeast 193 222 8,900  Level FlightAware
05:21PM 42.5250 -83.6430 126° Southeast 191 220 8,900  Level FlightAware
05:21PM 42.5110 -83.6140 123° Southeast 193 222 8,900  Level FlightAware
05:22PM 42.4950 -83.5840 126° Southeast 192 221 8,900  Level FlightAware
05:22PM 42.4820 -83.5570 123° Southeast 192 221 8,900  Level FlightAware
05:22PM 42.4740 -83.5420 126° Southeast 191 220 8,900  Level FlightAware
05:23PM 42.4610 -83.5170 125° Southeast 192 221 8,900  Level FlightAware
05:23PM 42.4460 -83.4890 126° Southeast 191 220 8,900  Level FlightAware
05:24PM 42.4380 -83.4730 124° Southeast 193 222 8,900  Level FlightAware
05:24PM 42.4250 -83.4470 124° Southeast 192 221 8,900  Level FlightAware
05:24PM 42.4120 -83.4210 124° Southeast 193 222 8,900  Level FlightAware
05:25PM 42.3950 -83.3900 127° Southeast 194 223 8,900  Level FlightAware
05:25PM 42.3830 -83.3660 124° Southeast 193 222 8,900  Level FlightAware
05:26PM 42.3670 -83.3340 124° Southeast 195 224 8,900  Level FlightAware
05:26PM 42.3520 -83.3050 125° Southeast 194 223 8,900  Level FlightAware
05:27PM 42.3380 -83.2780 125° Southeast 193 222 8,900  Level FlightAware
05:27PM 42.3240 -83.2500 124° Southeast 196 226 8,900  Level FlightAware
05:28PM 42.3110 -83.2260 126° Southeast 193 222 8,900  Level FlightAware
05:28PM 42.3020 -83.2080 124° Southeast 195 224 8,900  Level FlightAware
05:28PM 42.2890 -83.1840 126° Southeast 196 226 8,900  Level FlightAware
05:29PM 42.2800 -83.1650 123° Southeast 194 223 8,900  Level FlightAware
05:29PM 42.2670 -83.1400 125° Southeast 194 223 8,900  Level FlightAware
05:30PM 42.2540 -83.1150 125° Southeast 192 221 8,900  Level FlightAware
05:30PM 42.2410 -83.0900 125° Southeast 194 223 8,900  Level FlightAware
05:31PM 42.2250 -83.0590 125° Southeast 193 222 8,900  Level FlightAware
05:31PM 42.2100 -83.0310 126° Southeast 195 224 8,900  Level FlightAware
05:31PM 42.2010 -83.0130 124° Southeast 196 226 8,900  Level FlightAware
05:32PM 42.1890 -82.9910 126° Southeast 194 223 8,900  Level FlightAware
05:32PM 42.1740 -82.9610 124° Southeast 197 227 8,900  Level FlightAware
05:33PM 42.1610 -82.9360 125° Southeast 196 226 8,900  Level FlightAware
05:33PM 42.1360 -82.8900 126° Southeast 196 226 8,900  Level FlightAware
05:34PM 42.1320 -82.8810 121° Southeast 196 226 8,900  Level FlightAware
05:34PM 42.1140 -82.8470 126° Southeast 197 227 8,900  Level FlightAware
05:35PM 42.1030 -82.8240 123° Southeast 197 227 8,900  Level FlightAware
05:35PM 42.0860 -82.7930 126° Southeast 198 228 8,900  Level FlightAware
05:35PM 42.0920 -82.8040 306° West 198 228 8,900  Level FlightAware
05:36PM 42.0770 -82.7750 125° Southeast 198 228 8,900  Level FlightAware
05:36PM 42.0660 -82.7540 125° Southeast 198 228 8,900  Level FlightAware
05:37PM 42.0550 -82.7330 125° Southeast 198 228 8,900  Level FlightAware
05:37PM 42.0390 -82.7010 124° Southeast 198 228 8,900  Level FlightAware
05:38PM 41.9778 -82.5942 124° Southeast 198 228 8,900  Level Cleveland Center
05:39PM 41.9536 -82.5458 124° Southeast 199 229 9,000  Climbing Cleveland Center
05:40PM 41.9211 -82.4892 128° Southeast 199 229 9,000 -60 Level Cleveland Center
05:41PM 41.8889 -82.4297 126° Southeast 199 229 8,900 -60 Descending Cleveland Center
05:42PM 41.8564 -82.3731 128° Southeast 199 229 8,900  Level Cleveland Center
05:43PM 41.8217 -82.3161 129° Southeast 199 229 8,900  Level Cleveland Center
05:44PM 41.7892 -82.2569 126° Southeast 199 229 8,900 -60 Level Cleveland Center
05:45PM 41.7547 -82.1975 128° Southeast 199 229 8,800 -420 Descending Cleveland Center
05:46PM 41.7181 -82.1353 128° Southeast 205 236 8,100 -480 Descending Cleveland Center
05:52PM 41.5610 -81.8550 128° Southeast 182 209 6,000 -420 Descending FlightAware
05:52PM 41.5260 -81.7940 127° Southeast 181 208 6,000  Level FlightAware
05:52PM 41.5120 -81.7680 126° Southeast 181 208 6,000  Level FlightAware
05:53PM 41.4970 -81.7440 130° Southeast 181 208 6,000  Level FlightAware
05:53PM 41.4830 -81.7190 127° Southeast 183 211 6,000  Level FlightAware
05:54PM 41.4720 -81.6990 126° Southeast 183 211 6,000  Level FlightAware
05:54PM 41.4630 -81.6850 131° Southeast 185 213 6,000  Level FlightAware
05:54PM 41.4470 -81.6580 128° Southeast 184 212 6,000  Level FlightAware
05:55PM 41.4410 -81.6470 126° Southeast 183 211 6,000  Level FlightAware
05:55PM 41.4260 -81.6220 129° Southeast 184 212 6,000 -120 Level FlightAware
05:55PM 41.4110 -81.5960 128° Southeast 188 216 5,900 -540 Descending FlightAware
05:56PM 41.3940 -81.5650 126° Southeast 203 234 5,500 -720 Descending FlightAware
05:56PM 41.3780 -81.5380 128° Southeast 209 241 5,200 -660 Descending FlightAware
05:57PM 41.3610 -81.5100 129° Southeast 206 237 4,900 -600 Descending FlightAware
05:57PM 41.3460 -81.4850 129° Southeast 202 232 4,700 -600 Descending FlightAware
05:58PM 41.3310 -81.4580 126° Southeast 204 235 4,400 -900 Descending FlightAware
05:58PM 41.3150 -81.4310 128° Southeast 205 236 3,900 -900 Descending FlightAware
05:59PM 41.3000 -81.4050 128° Southeast 196 226 3,600 -540 Descending FlightAware
05:59PM 41.2890 -81.3860 128° Southeast 192 221 3,500 -660 Descending FlightAware
05:59PM 41.2740 -81.3600 128° Southeast 190 219 3,100 -540 Descending FlightAware
06:00PM 41.2690 -81.3510 126° Southeast 186 214 2,900 -180 Descending FlightAware
06:01PM 41.2230 -81.3240 156° South 164 189 2,900 -60 Level FlightAware
06:03PM 41.2000 -81.2500 180° South  Level FlightAware Approximate
06:04PM 41.2102 -81.2516 180° South  Level Estimated
06:05PM 41.2102 -81.2516 180° South  Level Estimated
06:05PM 41.0820 -81.4280 180° South 164 189 2,800  Level FlightAware
06:05PM 41.0660 -81.4570 234° Southwest 160 184 2,900  Climbing FlightAware
06:06PM 41.0570 -81.4720 231° Southwest 170 196 2,800 -480 Descending FlightAware
06:06PM 41.0450 -81.4910 230° Southwest 174 200 2,600 -300 Descending FlightAware
06:06PM 41.0350 -81.5000 214° Southwest 175 201 2,600 60 Level FlightAware
06:07PM 41.0110 -81.5090 196° South 175 201 2,700 -120 Climbing FlightAware
06:07PM 41.0170 -81.4640 80° East 130 150 2,500 -300 Descending FlightAware
06:08PM 41.0190 -81.4470 81° East 130 150 2,500  Level FlightAware
06:10PM 41.0992 -81.3652 38° Northeast  Level Estimated
06:11PM 41.1399 -81.3236 38° Northeast  Level Estimated
06:12PM 41.1807 -81.2819 38° Northeast  Level Estimated
06:13PM 41.2102 -81.2516 38° Northeast  Level Estimated
06:14PM 41.2102 -81.2516 59° Northeast  Level Estimated